sensor_id;sensor_type;location;lat;lon;timestamp;P1;durP1;ratioP1;P2;durP2;ratioP2
73593;SDS011;64760;53.404;23.498;2023-03-01T00:01:14;10.15;;;4.03;;
73593;SDS011;64760;53.404;23.498;2023-03-01T00:03:42;8.50;;;4.30;;
73593;SDS011;64760;53.404;23.498;2023-03-01T00:06:09;11.52;;;3.60;;
73593;SDS011;64760;53.404;23.498;2023-03-01T00:08:35;5.65;;;2.83;;
73593;SDS011;64760;53.404;23.498;2023-03-01T00:13:28;5.97;;;3.22;;
73593;SDS011;64760;53.404;23.498;2023-03-01T00:15:54;5.00;;;3.50;;
73593;SDS011;64760;53.404;23.498;2023-03-01T00:18:20;7.82;;;3.40;;
73593;SDS011;64760;53.404;23.498;2023-03-01T00:20:51;7.07;;;3.42;;
73593;SDS011;64760;53.404;23.498;2023-03-01T00:23:18;6.78;;;2.30;;
73593;SDS011;64760;53.404;23.498;2023-03-01T00:25:45;7.95;;;3.78;;
73593;SDS011;64760;53.404;23.498;2023-03-01T00:28:12;5.65;;;3.40;;
73593;SDS011;64760;53.404;23.498;2023-03-01T00:30:38;9.77;;;5.70;;
73593;SDS011;64760;53.404;23.498;2023-03-01T00:33:04;9.30;;;4.07;;
73593;SDS011;64760;53.404;23.498;2023-03-01T00:35:34;11.80;;;3.72;;
73593;SDS011;64760;53.404;23.498;2023-03-01T00:38:01;15.70;;;4.93;;
73593;SDS011;64760;53.404;23.498;2023-03-01T00:40:28;6.95;;;3.90;;
73593;SDS011;64760;53.404;23.498;2023-03-01T00:42:55;9.85;;;3.63;;
73593;SDS011;64760;53.404;23.498;2023-03-01T00:45:22;11.88;;;4.65;;
73593;SDS011;64760;53.404;23.498;2023-03-01T00:47:50;11.60;;;5.63;;
73593;SDS011;64760;53.404;23.498;2023-03-01T00:50:17;13.82;;;6.60;;
73593;SDS011;64760;53.404;23.498;2023-03-01T00:52:44;13.38;;;5.38;;
73593;SDS011;64760;53.404;23.498;2023-03-01T00:55:10;10.20;;;4.43;;
73593;SDS011;64760;53.404;23.498;2023-03-01T00:57:37;10.75;;;5.22;;
73593;SDS011;64760;53.404;23.498;2023-03-01T01:00:05;6.93;;;3.90;;
73593;SDS011;64760;53.404;23.498;2023-03-01T01:02:32;11.48;;;4.22;;
73593;SDS011;64760;53.404;23.498;2023-03-01T01:05:00;8.07;;;4.05;;
73593;SDS011;64760;53.404;23.498;2023-03-01T01:07:26;9.18;;;4.78;;
73593;SDS011;64760;53.404;23.498;2023-03-01T01:09:52;10.13;;;4.40;;
73593;SDS011;64760;53.404;23.498;2023-03-01T01:12:19;8.35;;;4.72;;
73593;SDS011;64760;53.404;23.498;2023-03-01T01:14:46;7.18;;;3.22;;
73593;SDS011;64760;53.404;23.498;2023-03-01T01:17:12;10.27;;;4.43;;
73593;SDS011;64760;53.404;23.498;2023-03-01T01:19:40;7.60;;;3.67;;
73593;SDS011;64760;53.404;23.498;2023-03-01T01:22:06;7.43;;;3.47;;
73593;SDS011;64760;53.404;23.498;2023-03-01T01:24:33;15.50;;;6.40;;
73593;SDS011;64760;53.404;23.498;2023-03-01T01:26:59;8.98;;;4.35;;
73593;SDS011;64760;53.404;23.498;2023-03-01T01:29:25;15.23;;;5.82;;
73593;SDS011;64760;53.404;23.498;2023-03-01T01:31:52;11.82;;;5.68;;
73593;SDS011;64760;53.404;23.498;2023-03-01T01:34:19;10.07;;;3.95;;
73593;SDS011;64760;53.404;23.498;2023-03-01T01:36:47;12.00;;;4.32;;
73593;SDS011;64760;53.404;23.498;2023-03-01T01:39:16;10.95;;;3.38;;
73593;SDS011;64760;53.404;23.498;2023-03-01T01:41:42;7.68;;;3.58;;
73593;SDS011;64760;53.404;23.498;2023-03-01T01:44:16;5.68;;;3.38;;
73593;SDS011;64760;53.404;23.498;2023-03-01T01:49:17;7.22;;;3.92;;
73593;SDS011;64760;53.404;23.498;2023-03-01T01:51:49;10.75;;;4.47;;
73593;SDS011;64760;53.404;23.498;2023-03-01T01:54:21;8.82;;;4.03;;
73593;SDS011;64760;53.404;23.498;2023-03-01T01:57:00;7.72;;;4.65;;
73593;SDS011;64760;53.404;23.498;2023-03-01T01:59:30;9.57;;;5.22;;
73593;SDS011;64760;53.404;23.498;2023-03-01T02:01:58;9.20;;;4.43;;
73593;SDS011;64760;53.404;23.498;2023-03-01T02:04:28;9.93;;;5.30;;
73593;SDS011;64760;53.404;23.498;2023-03-01T02:09:48;6.03;;;2.60;;
73593;SDS011;64760;53.404;23.498;2023-03-01T02:12:19;11.30;;;5.05;;
73593;SDS011;64760;53.404;23.498;2023-03-01T02:14:48;8.50;;;4.50;;
73593;SDS011;64760;53.404;23.498;2023-03-01T02:17:15;5.97;;;3.10;;
73593;SDS011;64760;53.404;23.498;2023-03-01T02:22:25;5.93;;;4.20;;
73593;SDS011;64760;53.404;23.498;2023-03-01T02:30:27;6.32;;;3.88;;
73593;SDS011;64760;53.404;23.498;2023-03-01T02:32:55;6.53;;;3.92;;
73593;SDS011;64760;53.404;23.498;2023-03-01T02:35:32;9.50;;;4.28;;
73593;SDS011;64760;53.404;23.498;2023-03-01T02:38:17;12.13;;;4.75;;
73593;SDS011;64760;53.404;23.498;2023-03-01T02:40:44;17.95;;;6.88;;
73593;SDS011;64760;53.404;23.498;2023-03-01T02:43:10;9.35;;;3.58;;
73593;SDS011;64760;53.404;23.498;2023-03-01T02:45:43;9.15;;;3.75;;
73593;SDS011;64760;53.404;23.498;2023-03-01T02:48:13;10.90;;;3.88;;
73593;SDS011;64760;53.404;23.498;2023-03-01T02:51:03;12.27;;;6.30;;
73593;SDS011;64760;53.404;23.498;2023-03-01T02:56:19;5.40;;;3.53;;
73593;SDS011;64760;53.404;23.498;2023-03-01T02:58:45;6.72;;;3.20;;
73593;SDS011;64760;53.404;23.498;2023-03-01T03:01:14;8.32;;;3.97;;
73593;SDS011;64760;53.404;23.498;2023-03-01T03:03:41;8.55;;;2.75;;
73593;SDS011;64760;53.404;23.498;2023-03-01T03:06:08;4.05;;;3.05;;
73593;SDS011;64760;53.404;23.498;2023-03-01T03:08:35;7.38;;;3.22;;
73593;SDS011;64760;53.404;23.498;2023-03-01T03:11:01;5.25;;;2.72;;
73593;SDS011;64760;53.404;23.498;2023-03-01T03:13:28;16.23;;;4.75;;
73593;SDS011;64760;53.404;23.498;2023-03-01T03:15:55;8.60;;;2.40;;
73593;SDS011;64760;53.404;23.498;2023-03-01T03:18:22;7.55;;;3.97;;
73593;SDS011;64760;53.404;23.498;2023-03-01T03:20:51;8.68;;;4.25;;
73593;SDS011;64760;53.404;23.498;2023-03-01T03:23:19;8.15;;;3.92;;
73593;SDS011;64760;53.404;23.498;2023-03-01T03:28:16;3.60;;;2.72;;
73593;SDS011;64760;53.404;23.498;2023-03-01T03:30:43;8.38;;;4.47;;
73593;SDS011;64760;53.404;23.498;2023-03-01T03:33:11;3.90;;;2.10;;
73593;SDS011;64760;53.404;23.498;2023-03-01T03:35:40;7.82;;;2.50;;
73593;SDS011;64760;53.404;23.498;2023-03-01T03:38:09;9.07;;;3.17;;
73593;SDS011;64760;53.404;23.498;2023-03-01T03:40:42;10.85;;;5.13;;
73593;SDS011;64760;53.404;23.498;2023-03-01T03:43:11;8.18;;;2.78;;
73593;SDS011;64760;53.404;23.498;2023-03-01T03:45:39;6.90;;;3.97;;
73593;SDS011;64760;53.404;23.498;2023-03-01T03:48:06;9.15;;;5.20;;
73593;SDS011;64760;53.404;23.498;2023-03-01T03:50:35;5.47;;;2.60;;
73593;SDS011;64760;53.404;23.498;2023-03-01T03:53:04;7.00;;;3.70;;
73593;SDS011;64760;53.404;23.498;2023-03-01T03:55:33;7.45;;;3.85;;
73593;SDS011;64760;53.404;23.498;2023-03-01T03:58:00;7.93;;;4.10;;
73593;SDS011;64760;53.404;23.498;2023-03-01T04:00:39;6.22;;;3.75;;
73593;SDS011;64760;53.404;23.498;2023-03-01T04:03:07;7.85;;;4.45;;
73593;SDS011;64760;53.404;23.498;2023-03-01T04:05:35;13.52;;;5.80;;
73593;SDS011;64760;53.404;23.498;2023-03-01T04:08:02;9.65;;;4.10;;
73593;SDS011;64760;53.404;23.498;2023-03-01T04:10:29;11.45;;;5.45;;
73593;SDS011;64760;53.404;23.498;2023-03-01T04:12:56;12.10;;;4.22;;
73593;SDS011;64760;53.404;23.498;2023-03-01T04:15:23;7.90;;;3.95;;
73593;SDS011;64760;53.404;23.498;2023-03-01T04:17:51;6.90;;;4.38;;
73593;SDS011;64760;53.404;23.498;2023-03-01T04:20:20;11.30;;;5.10;;
73593;SDS011;64760;53.404;23.498;2023-03-01T04:25:18;10.02;;;5.13;;
73593;SDS011;64760;53.404;23.498;2023-03-01T04:27:45;9.43;;;3.97;;
73593;SDS011;64760;53.404;23.498;2023-03-01T04:30:11;7.43;;;3.90;;
73593;SDS011;64760;53.404;23.498;2023-03-01T04:32:37;6.88;;;3.17;;
73593;SDS011;64760;53.404;23.498;2023-03-01T04:35:05;7.57;;;4.20;;
73593;SDS011;64760;53.404;23.498;2023-03-01T04:37:31;6.10;;;3.17;;
73593;SDS011;64760;53.404;23.498;2023-03-01T04:39:58;10.68;;;5.53;;
73593;SDS011;64760;53.404;23.498;2023-03-01T04:42:24;7.47;;;4.05;;
73593;SDS011;64760;53.404;23.498;2023-03-01T04:44:50;10.55;;;5.00;;
73593;SDS011;64760;53.404;23.498;2023-03-01T04:47:17;11.38;;;5.15;;
73593;SDS011;64760;53.404;23.498;2023-03-01T04:49:43;7.43;;;4.50;;
73593;SDS011;64760;53.404;23.498;2023-03-01T04:52:09;7.80;;;4.30;;
73593;SDS011;64760;53.404;23.498;2023-03-01T04:54:35;5.90;;;3.53;;
73593;SDS011;64760;53.404;23.498;2023-03-01T04:57:04;7.50;;;3.63;;
73593;SDS011;64760;53.404;23.498;2023-03-01T04:59:30;8.75;;;4.45;;
73593;SDS011;64760;53.404;23.498;2023-03-01T05:01:56;8.98;;;4.40;;
73593;SDS011;64760;53.404;23.498;2023-03-01T05:04:23;15.55;;;6.40;;
73593;SDS011;64760;53.404;23.498;2023-03-01T05:06:50;21.75;;;9.43;;
73593;SDS011;64760;53.404;23.498;2023-03-01T05:09:16;13.23;;;7.35;;
73593;SDS011;64760;53.404;23.498;2023-03-01T05:11:43;9.98;;;4.55;;
73593;SDS011;64760;53.404;23.498;2023-03-01T05:14:09;6.20;;;4.47;;
73593;SDS011;64760;53.404;23.498;2023-03-01T05:16:36;14.13;;;5.43;;
73593;SDS011;64760;53.404;23.498;2023-03-01T05:19:03;10.52;;;6.07;;
73593;SDS011;64760;53.404;23.498;2023-03-01T05:21:41;8.35;;;4.10;;
73593;SDS011;64760;53.404;23.498;2023-03-01T05:24:28;16.17;;;7.85;;
73593;SDS011;64760;53.404;23.498;2023-03-01T05:26:55;6.60;;;2.75;;
73593;SDS011;64760;53.404;23.498;2023-03-01T05:29:21;11.55;;;4.55;;
73593;SDS011;64760;53.404;23.498;2023-03-01T05:31:51;9.05;;;4.15;;
73593;SDS011;64760;53.404;23.498;2023-03-01T05:34:22;9.32;;;4.93;;
73593;SDS011;64760;53.404;23.498;2023-03-01T05:36:49;8.73;;;4.93;;
73593;SDS011;64760;53.404;23.498;2023-03-01T05:39:22;14.30;;;6.22;;
73593;SDS011;64760;53.404;23.498;2023-03-01T05:41:54;7.13;;;3.83;;
73593;SDS011;64760;53.404;23.498;2023-03-01T05:44:21;11.52;;;5.25;;
73593;SDS011;64760;53.404;23.498;2023-03-01T05:46:48;15.88;;;4.10;;
73593;SDS011;64760;53.404;23.498;2023-03-01T05:49:15;5.85;;;3.78;;
73593;SDS011;64760;53.404;23.498;2023-03-01T05:51:42;12.48;;;5.00;;
73593;SDS011;64760;53.404;23.498;2023-03-01T05:54:09;19.25;;;8.10;;
73593;SDS011;64760;53.404;23.498;2023-03-01T05:56:37;12.88;;;7.25;;
73593;SDS011;64760;53.404;23.498;2023-03-01T05:59:04;14.20;;;6.55;;
73593;SDS011;64760;53.404;23.498;2023-03-01T06:01:34;11.80;;;6.97;;
73593;SDS011;64760;53.404;23.498;2023-03-01T06:04:01;12.70;;;6.43;;
73593;SDS011;64760;53.404;23.498;2023-03-01T06:06:29;10.20;;;5.78;;
73593;SDS011;64760;53.404;23.498;2023-03-01T06:08:58;12.88;;;6.53;;
73593;SDS011;64760;53.404;23.498;2023-03-01T06:11:26;11.25;;;6.78;;
73593;SDS011;64760;53.404;23.498;2023-03-01T06:13:52;14.23;;;6.15;;
73593;SDS011;64760;53.404;23.498;2023-03-01T06:16:18;13.57;;;6.53;;
73593;SDS011;64760;53.404;23.498;2023-03-01T06:18:45;16.70;;;5.75;;
73593;SDS011;64760;53.404;23.498;2023-03-01T06:21:11;8.55;;;2.88;;
73593;SDS011;64760;53.404;23.498;2023-03-01T06:23:37;19.33;;;8.60;;
73593;SDS011;64760;53.404;23.498;2023-03-01T06:26:07;14.75;;;7.70;;
73593;SDS011;64760;53.404;23.498;2023-03-01T06:28:34;17.98;;;11.57;;
73593;SDS011;64760;53.404;23.498;2023-03-01T06:31:01;16.58;;;9.68;;
73593;SDS011;64760;53.404;23.498;2023-03-01T06:33:28;15.13;;;6.72;;
73593;SDS011;64760;53.404;23.498;2023-03-01T06:35:55;6.55;;;4.07;;
73593;SDS011;64760;53.404;23.498;2023-03-01T06:38:22;7.03;;;3.75;;
73593;SDS011;64760;53.404;23.498;2023-03-01T06:40:53;20.13;;;7.70;;
73593;SDS011;64760;53.404;23.498;2023-03-01T06:43:22;23.58;;;9.63;;
73593;SDS011;64760;53.404;23.498;2023-03-01T06:45:49;7.95;;;3.38;;
73593;SDS011;64760;53.404;23.498;2023-03-01T06:48:15;6.50;;;3.42;;
73593;SDS011;64760;53.404;23.498;2023-03-01T06:50:42;13.90;;;5.05;;
73593;SDS011;64760;53.404;23.498;2023-03-01T06:53:08;9.05;;;5.00;;
73593;SDS011;64760;53.404;23.498;2023-03-01T06:55:34;15.02;;;6.90;;
73593;SDS011;64760;53.404;23.498;2023-03-01T06:58:01;11.13;;;4.65;;
73593;SDS011;64760;53.404;23.498;2023-03-01T07:00:34;12.48;;;6.50;;
73593;SDS011;64760;53.404;23.498;2023-03-01T07:03:01;12.52;;;7.03;;
73593;SDS011;64760;53.404;23.498;2023-03-01T07:05:28;15.20;;;6.88;;
73593;SDS011;64760;53.404;23.498;2023-03-01T07:07:55;18.63;;;8.45;;
73593;SDS011;64760;53.404;23.498;2023-03-01T07:10:22;12.10;;;5.43;;
73593;SDS011;64760;53.404;23.498;2023-03-01T07:12:48;12.07;;;5.82;;
73593;SDS011;64760;53.404;23.498;2023-03-01T07:15:15;11.57;;;5.95;;
73593;SDS011;64760;53.404;23.498;2023-03-01T07:17:41;13.93;;;6.45;;
73593;SDS011;64760;53.404;23.498;2023-03-01T07:20:10;19.35;;;7.63;;
73593;SDS011;64760;53.404;23.498;2023-03-01T07:22:38;19.23;;;8.57;;
73593;SDS011;64760;53.404;23.498;2023-03-01T07:25:06;20.58;;;10.90;;
73593;SDS011;64760;53.404;23.498;2023-03-01T07:27:33;17.45;;;8.00;;
73593;SDS011;64760;53.404;23.498;2023-03-01T07:29:59;15.10;;;6.80;;
73593;SDS011;64760;53.404;23.498;2023-03-01T07:32:27;15.25;;;6.45;;
73593;SDS011;64760;53.404;23.498;2023-03-01T07:34:53;15.15;;;7.70;;
73593;SDS011;64760;53.404;23.498;2023-03-01T07:37:19;8.43;;;5.32;;
73593;SDS011;64760;53.404;23.498;2023-03-01T07:39:45;18.52;;;9.13;;
73593;SDS011;64760;53.404;23.498;2023-03-01T07:42:12;12.43;;;5.80;;
73593;SDS011;64760;53.404;23.498;2023-03-01T07:44:39;15.05;;;8.25;;
73593;SDS011;64760;53.404;23.498;2023-03-01T07:47:05;17.92;;;9.20;;
73593;SDS011;64760;53.404;23.498;2023-03-01T07:49:31;12.30;;;6.78;;
73593;SDS011;64760;53.404;23.498;2023-03-01T07:51:58;22.85;;;10.52;;
73593;SDS011;64760;53.404;23.498;2023-03-01T07:54:25;14.32;;;6.45;;
73593;SDS011;64760;53.404;23.498;2023-03-01T07:56:51;20.30;;;8.93;;
73593;SDS011;64760;53.404;23.498;2023-03-01T07:59:19;23.00;;;10.25;;
73593;SDS011;64760;53.404;23.498;2023-03-01T08:01:45;12.18;;;5.22;;
73593;SDS011;64760;53.404;23.498;2023-03-01T08:04:12;9.15;;;4.18;;
73593;SDS011;64760;53.404;23.498;2023-03-01T08:06:39;6.47;;;3.75;;
73593;SDS011;64760;53.404;23.498;2023-03-01T08:09:06;20.35;;;8.45;;
73593;SDS011;64760;53.404;23.498;2023-03-01T08:11:33;11.82;;;4.90;;
73593;SDS011;64760;53.404;23.498;2023-03-01T08:13:59;19.00;;;7.55;;
73593;SDS011;64760;53.404;23.498;2023-03-01T08:16:25;20.27;;;9.68;;
73593;SDS011;64760;53.404;23.498;2023-03-01T08:18:52;16.38;;;6.18;;
73593;SDS011;64760;53.404;23.498;2023-03-01T08:21:19;8.35;;;4.18;;
73593;SDS011;64760;53.404;23.498;2023-03-01T08:23:46;15.02;;;7.78;;
73593;SDS011;64760;53.404;23.498;2023-03-01T08:26:18;20.10;;;8.75;;
73593;SDS011;64760;53.404;23.498;2023-03-01T08:28:47;21.65;;;7.05;;
73593;SDS011;64760;53.404;23.498;2023-03-01T08:31:18;21.58;;;7.85;;
73593;SDS011;64760;53.404;23.498;2023-03-01T08:33:48;24.75;;;11.93;;
73593;SDS011;64760;53.404;23.498;2023-03-01T08:36:24;11.90;;;6.40;;
73593;SDS011;64760;53.404;23.498;2023-03-01T08:38:58;20.15;;;8.00;;
73593;SDS011;64760;53.404;23.498;2023-03-01T08:41:25;13.50;;;5.97;;
73593;SDS011;64760;53.404;23.498;2023-03-01T08:43:52;17.52;;;6.28;;
73593;SDS011;64760;53.404;23.498;2023-03-01T08:46:34;12.57;;;6.13;;
73593;SDS011;64760;53.404;23.498;2023-03-01T08:49:06;16.48;;;7.45;;
73593;SDS011;64760;53.404;23.498;2023-03-01T08:51:33;9.35;;;4.50;;
73593;SDS011;64760;53.404;23.498;2023-03-01T08:54:06;9.13;;;4.45;;
73593;SDS011;64760;53.404;23.498;2023-03-01T08:56:35;14.82;;;6.78;;
73593;SDS011;64760;53.404;23.498;2023-03-01T08:59:02;19.23;;;7.32;;
73593;SDS011;64760;53.404;23.498;2023-03-01T09:01:28;13.00;;;5.72;;
73593;SDS011;64760;53.404;23.498;2023-03-01T09:03:55;12.27;;;5.65;;
73593;SDS011;64760;53.404;23.498;2023-03-01T09:06:21;14.25;;;5.55;;
73593;SDS011;64760;53.404;23.498;2023-03-01T09:08:48;9.07;;;3.78;;
73593;SDS011;64760;53.404;23.498;2023-03-01T09:11:16;13.85;;;5.45;;
73593;SDS011;64760;53.404;23.498;2023-03-01T09:13:45;7.47;;;3.15;;
73593;SDS011;64760;53.404;23.498;2023-03-01T09:16:13;3.83;;;2.60;;
73593;SDS011;64760;53.404;23.498;2023-03-01T09:18:42;11.40;;;5.32;;
73593;SDS011;64760;53.404;23.498;2023-03-01T09:21:11;4.65;;;2.38;;
73593;SDS011;64760;53.404;23.498;2023-03-01T09:23:42;9.25;;;4.82;;
73593;SDS011;64760;53.404;23.498;2023-03-01T09:26:11;9.23;;;4.32;;
73593;SDS011;64760;53.404;23.498;2023-03-01T09:28:39;13.20;;;5.43;;
73593;SDS011;64760;53.404;23.498;2023-03-01T09:31:06;13.88;;;5.97;;
73593;SDS011;64760;53.404;23.498;2023-03-01T09:33:33;11.45;;;4.35;;
73593;SDS011;64760;53.404;23.498;2023-03-01T09:36:03;7.65;;;4.10;;
73593;SDS011;64760;53.404;23.498;2023-03-01T09:38:31;8.07;;;4.20;;
73593;SDS011;64760;53.404;23.498;2023-03-01T09:40:59;9.98;;;5.05;;
73593;SDS011;64760;53.404;23.498;2023-03-01T09:43:45;12.95;;;5.95;;
73593;SDS011;64760;53.404;23.498;2023-03-01T09:46:20;9.38;;;5.68;;
73593;SDS011;64760;53.404;23.498;2023-03-01T09:48:57;8.52;;;4.35;;
73593;SDS011;64760;53.404;23.498;2023-03-01T09:51:30;7.70;;;4.88;;
73593;SDS011;64760;53.404;23.498;2023-03-01T09:54:02;11.00;;;5.53;;
73593;SDS011;64760;53.404;23.498;2023-03-01T09:56:33;13.05;;;5.80;;
73593;SDS011;64760;53.404;23.498;2023-03-01T10:09:36;9.05;;;4.85;;
73593;SDS011;64760;53.404;23.498;2023-03-01T10:12:20;11.82;;;5.38;;
73593;SDS011;64760;53.404;23.498;2023-03-01T10:21:00;7.60;;;4.18;;
73593;SDS011;64760;53.404;23.498;2023-03-01T10:23:17;12.32;;;4.75;;
73593;SDS011;64760;53.404;23.498;2023-03-01T10:33:26;9.95;;;4.93;;
73593;SDS011;64760;53.404;23.498;2023-03-01T10:35:55;6.88;;;3.60;;
73593;SDS011;64760;53.404;23.498;2023-03-01T10:38:22;12.43;;;5.72;;
73593;SDS011;64760;53.404;23.498;2023-03-01T10:40:50;10.90;;;5.20;;
73593;SDS011;64760;53.404;23.498;2023-03-01T10:43:24;12.57;;;5.03;;
73593;SDS011;64760;53.404;23.498;2023-03-01T10:45:53;13.98;;;6.07;;
73593;SDS011;64760;53.404;23.498;2023-03-01T10:48:20;10.40;;;5.28;;
73593;SDS011;64760;53.404;23.498;2023-03-01T10:56:02;11.70;;;4.90;;
73593;SDS011;64760;53.404;23.498;2023-03-01T10:58:38;10.68;;;4.05;;
73593;SDS011;64760;53.404;23.498;2023-03-01T11:01:23;13.90;;;5.25;;
73593;SDS011;64760;53.404;23.498;2023-03-01T11:06:34;13.38;;;5.85;;
73593;SDS011;64760;53.404;23.498;2023-03-01T11:09:17;14.60;;;5.20;;
73593;SDS011;64760;53.404;23.498;2023-03-01T11:13:14;12.60;;;5.90;;
73593;SDS011;64760;53.404;23.498;2023-03-01T11:16:45;9.15;;;5.68;;
73593;SDS011;64760;53.404;23.498;2023-03-01T11:19:25;16.10;;;6.03;;
73593;SDS011;64760;53.404;23.498;2023-03-01T11:22:04;15.48;;;5.82;;
73593;SDS011;64760;53.404;23.498;2023-03-01T11:24:39;10.82;;;5.32;;
73593;SDS011;64760;53.404;23.498;2023-03-01T11:27:19;19.92;;;8.38;;
73593;SDS011;64760;53.404;23.498;2023-03-01T11:29:52;18.23;;;8.48;;
73593;SDS011;64760;53.404;23.498;2023-03-01T11:32:42;16.30;;;6.93;;
73593;SDS011;64760;53.404;23.498;2023-03-01T11:35:18;14.48;;;4.97;;
73593;SDS011;64760;53.404;23.498;2023-03-01T11:37:59;20.95;;;5.47;;
73593;SDS011;64760;53.404;23.498;2023-03-01T11:40:40;43.17;;;12.95;;
73593;SDS011;64760;53.404;23.498;2023-03-01T11:43:30;25.48;;;9.75;;
73593;SDS011;64760;53.404;23.498;2023-03-01T11:46:25;13.25;;;6.90;;
73593;SDS011;64760;53.404;23.498;2023-03-01T11:54:48;10.13;;;4.93;;
73593;SDS011;64760;53.404;23.498;2023-03-01T12:08:42;20.90;;;10.32;;
73593;SDS011;64760;53.404;23.498;2023-03-01T12:25:12;15.45;;;6.88;;
73593;SDS011;64760;53.404;23.498;2023-03-01T12:32:54;20.30;;;8.52;;
73593;SDS011;64760;53.404;23.498;2023-03-01T12:43:58;15.95;;;5.97;;
73593;SDS011;64760;53.404;23.498;2023-03-01T12:47:01;7.88;;;3.28;;
73593;SDS011;64760;53.404;23.498;2023-03-01T12:49:52;14.10;;;5.80;;
73593;SDS011;64760;53.404;23.498;2023-03-01T12:52:27;17.15;;;6.00;;
73593;SDS011;64760;53.404;23.498;2023-03-01T12:55:34;16.50;;;8.25;;
73593;SDS011;64760;53.404;23.498;2023-03-01T13:04:14;14.15;;;6.00;;
73593;SDS011;64760;53.404;23.498;2023-03-01T13:12:41;12.95;;;6.25;;
73593;SDS011;64760;53.404;23.498;2023-03-01T13:17:50;15.45;;;7.40;;
73593;SDS011;64760;53.404;23.498;2023-03-01T13:26:12;14.23;;;6.97;;
73593;SDS011;64760;53.404;23.498;2023-03-01T13:31:11;19.05;;;10.40;;
73593;SDS011;64760;53.404;23.498;2023-03-01T13:33:56;22.30;;;10.55;;
73593;SDS011;64760;53.404;23.498;2023-03-01T13:44:20;21.52;;;10.80;;
73593;SDS011;64760;53.404;23.498;2023-03-01T13:49:36;26.58;;;12.88;;
73593;SDS011;64760;53.404;23.498;2023-03-01T13:52:23;17.50;;;8.10;;
73593;SDS011;64760;53.404;23.498;2023-03-01T13:55:51;13.00;;;5.45;;
73593;SDS011;64760;53.404;23.498;2023-03-01T13:58:01;15.55;;;7.80;;
73593;SDS011;64760;53.404;23.498;2023-03-01T14:00:35;20.70;;;7.93;;
73593;SDS011;64760;53.404;23.498;2023-03-01T14:05:37;15.77;;;9.00;;
73593;SDS011;64760;53.404;23.498;2023-03-01T14:08:13;17.23;;;8.35;;
73593;SDS011;64760;53.404;23.498;2023-03-01T14:19:30;15.07;;;7.47;;
73593;SDS011;64760;53.404;23.498;2023-03-01T14:21:58;26.77;;;9.25;;
73593;SDS011;64760;53.404;23.498;2023-03-01T14:24:26;17.92;;;9.27;;
73593;SDS011;64760;53.404;23.498;2023-03-01T14:26:53;21.48;;;7.88;;
73593;SDS011;64760;53.404;23.498;2023-03-01T14:29:24;23.58;;;10.40;;
73593;SDS011;64760;53.404;23.498;2023-03-01T14:32:08;19.17;;;8.25;;
73593;SDS011;64760;53.404;23.498;2023-03-01T14:34:42;16.88;;;8.00;;
73593;SDS011;64760;53.404;23.498;2023-03-01T14:37:46;19.30;;;7.38;;
73593;SDS011;64760;53.404;23.498;2023-03-01T14:40:19;17.92;;;9.70;;
73593;SDS011;64760;53.404;23.498;2023-03-01T14:42:47;20.23;;;8.20;;
73593;SDS011;64760;53.404;23.498;2023-03-01T14:45:13;16.83;;;7.60;;
73593;SDS011;64760;53.404;23.498;2023-03-01T14:47:40;15.43;;;8.23;;
73593;SDS011;64760;53.404;23.498;2023-03-01T14:50:08;14.77;;;7.50;;
73593;SDS011;64760;53.404;23.498;2023-03-01T14:52:58;13.60;;;6.90;;
73593;SDS011;64760;53.404;23.498;2023-03-01T14:55:33;22.38;;;10.57;;
73593;SDS011;64760;53.404;23.498;2023-03-01T14:58:03;16.98;;;8.55;;
73593;SDS011;64760;53.404;23.498;2023-03-01T15:00:31;18.17;;;9.63;;
73593;SDS011;64760;53.404;23.498;2023-03-01T15:03:06;19.75;;;6.70;;
73593;SDS011;64760;53.404;23.498;2023-03-01T15:05:38;26.83;;;13.70;;
73593;SDS011;64760;53.404;23.498;2023-03-01T15:08:08;24.38;;;10.10;;
73593;SDS011;64760;53.404;23.498;2023-03-01T15:10:55;18.70;;;8.55;;
73593;SDS011;64760;53.404;23.498;2023-03-01T15:13:42;29.25;;;12.20;;
73593;SDS011;64760;53.404;23.498;2023-03-01T15:16:12;25.38;;;11.73;;
73593;SDS011;64760;53.404;23.498;2023-03-01T15:18:46;18.45;;;10.07;;
73593;SDS011;64760;53.404;23.498;2023-03-01T15:23:47;9.75;;;5.75;;
73593;SDS011;64760;53.404;23.498;2023-03-01T15:26:33;21.17;;;7.32;;
73593;SDS011;64760;53.404;23.498;2023-03-01T15:29:04;20.98;;;9.25;;
73593;SDS011;64760;53.404;23.498;2023-03-01T15:31:34;14.85;;;7.13;;
73593;SDS011;64760;53.404;23.498;2023-03-01T15:36:45;22.02;;;9.43;;
73593;SDS011;64760;53.404;23.498;2023-03-01T15:42:05;13.15;;;6.63;;
73593;SDS011;64760;53.404;23.498;2023-03-01T15:44:34;13.63;;;7.07;;
73593;SDS011;64760;53.404;23.498;2023-03-01T15:47:02;18.45;;;9.57;;
73593;SDS011;64760;53.404;23.498;2023-03-01T15:49:47;11.55;;;5.32;;
73593;SDS011;64760;53.404;23.498;2023-03-01T15:54:59;16.38;;;9.10;;
73593;SDS011;64760;53.404;23.498;2023-03-01T15:57:27;17.42;;;8.98;;
73593;SDS011;64760;53.404;23.498;2023-03-01T15:59:55;14.95;;;6.32;;
73593;SDS011;64760;53.404;23.498;2023-03-01T16:02:23;21.95;;;8.77;;
73593;SDS011;64760;53.404;23.498;2023-03-01T16:04:50;30.13;;;12.27;;
73593;SDS011;64760;53.404;23.498;2023-03-01T16:07:16;21.23;;;10.25;;
73593;SDS011;64760;53.404;23.498;2023-03-01T16:09:43;15.38;;;6.20;;
73593;SDS011;64760;53.404;23.498;2023-03-01T16:12:12;14.75;;;6.20;;
73593;SDS011;64760;53.404;23.498;2023-03-01T16:14:41;17.95;;;7.53;;
73593;SDS011;64760;53.404;23.498;2023-03-01T16:17:07;19.40;;;7.85;;
73593;SDS011;64760;53.404;23.498;2023-03-01T16:19:36;18.00;;;8.77;;
73593;SDS011;64760;53.404;23.498;2023-03-01T16:22:04;26.23;;;11.65;;
73593;SDS011;64760;53.404;23.498;2023-03-01T16:24:30;29.92;;;13.57;;
73593;SDS011;64760;53.404;23.498;2023-03-01T16:26:57;19.73;;;9.38;;
73593;SDS011;64760;53.404;23.498;2023-03-01T16:29:24;13.82;;;6.15;;
73593;SDS011;64760;53.404;23.498;2023-03-01T16:31:50;18.48;;;7.57;;
73593;SDS011;64760;53.404;23.498;2023-03-01T16:34:17;8.80;;;5.72;;
73593;SDS011;64760;53.404;23.498;2023-03-01T16:36:43;16.23;;;7.93;;
73593;SDS011;64760;53.404;23.498;2023-03-01T16:39:09;11.98;;;6.78;;
73593;SDS011;64760;53.404;23.498;2023-03-01T16:41:35;19.17;;;9.18;;
73593;SDS011;64760;53.404;23.498;2023-03-01T16:44:02;20.95;;;7.10;;
73593;SDS011;64760;53.404;23.498;2023-03-01T16:46:28;19.55;;;8.50;;
73593;SDS011;64760;53.404;23.498;2023-03-01T16:48:55;20.90;;;10.38;;
73593;SDS011;64760;53.404;23.498;2023-03-01T16:51:22;18.90;;;8.27;;
73593;SDS011;64760;53.404;23.498;2023-03-01T16:53:49;15.23;;;4.85;;
73593;SDS011;64760;53.404;23.498;2023-03-01T16:56:17;14.77;;;6.40;;
73593;SDS011;64760;53.404;23.498;2023-03-01T16:58:44;11.63;;;6.68;;
73593;SDS011;64760;53.404;23.498;2023-03-01T17:01:15;8.88;;;4.75;;
73593;SDS011;64760;53.404;23.498;2023-03-01T17:03:46;22.85;;;9.20;;
73593;SDS011;64760;53.404;23.498;2023-03-01T17:06:15;28.48;;;13.75;;
73593;SDS011;64760;53.404;23.498;2023-03-01T17:08:44;36.20;;;16.25;;
73593;SDS011;64760;53.404;23.498;2023-03-01T17:11:11;37.60;;;13.30;;
73593;SDS011;64760;53.404;23.498;2023-03-01T17:13:39;31.38;;;13.43;;
73593;SDS011;64760;53.404;23.498;2023-03-01T17:16:10;39.50;;;15.77;;
73593;SDS011;64760;53.404;23.498;2023-03-01T17:18:39;36.75;;;14.50;;
73593;SDS011;64760;53.404;23.498;2023-03-01T17:21:06;11.02;;;5.30;;